createdAt,value
2023-05-04T00:00:07.371Z,7.00
2023-05-04T00:03:09.529Z,6.98
2023-05-04T00:06:11.111Z,6.96
2023-05-04T00:09:14.063Z,6.91
2023-05-04T00:12:17.153Z,6.90
2023-05-04T00:15:18.660Z,6.90
2023-05-04T00:18:20.239Z,6.89
2023-05-04T00:21:21.836Z,6.89
2023-05-04T00:24:23.533Z,6.90
2023-05-04T00:27:26.528Z,6.86
2023-05-04T00:30:28.386Z,6.87
2023-05-04T00:33:30.052Z,6.89
2023-05-04T00:36:31.697Z,6.84
2023-05-04T00:39:35.352Z,6.72
2023-05-04T00:42:38.409Z,6.65
2023-05-04T00:45:40.368Z,6.59
2023-05-04T00:48:42.853Z,6.55
2023-05-04T00:51:45.095Z,6.54
2023-05-04T00:54:47.377Z,6.50
2023-05-04T00:57:50.780Z,6.46
2023-05-04T01:00:52.729Z,6.42
2023-05-04T01:03:55.181Z,6.34
2023-05-04T01:07:00.596Z,6.26
2023-05-04T01:10:04.052Z,6.29
2023-05-04T01:13:08.599Z,6.21
2023-05-04T01:16:11.107Z,6.12
2023-05-04T01:19:12.724Z,6.09
2023-05-04T01:22:15.804Z,6.07
2023-05-04T01:25:18.776Z,6.11
2023-05-04T01:28:24.403Z,6.12
2023-05-04T01:31:27.390Z,6.09
2023-05-04T01:34:29.424Z,6.05
2023-05-04T01:37:32.771Z,5.98
2023-05-04T01:40:34.334Z,5.90
2023-05-04T01:43:35.844Z,5.87
2023-05-04T01:46:39.222Z,5.82
2023-05-04T01:49:41.285Z,5.82
2023-05-04T01:52:45.499Z,5.88
2023-05-04T01:55:47.087Z,5.95
2023-05-04T01:58:48.680Z,5.99
2023-05-04T02:01:50.879Z,5.99
2023-05-04T02:04:52.649Z,5.99
2023-05-04T02:07:55.743Z,6.02
2023-05-04T02:10:57.451Z,6.00
2023-05-04T02:13:59.168Z,5.99
2023-05-04T02:17:01.010Z,5.91
2023-05-04T02:20:02.780Z,5.86
2023-05-04T02:23:05.941Z,5.83
2023-05-04T02:26:07.564Z,5.81
2023-05-04T02:29:09.286Z,5.81
2023-05-04T02:32:10.885Z,5.84
2023-05-04T02:35:13.012Z,5.78
2023-05-04T02:38:16.403Z,5.66
2023-05-04T02:41:17.976Z,5.68
2023-05-04T02:44:19.682Z,5.63
2023-05-04T02:47:21.452Z,5.64
2023-05-04T02:50:23.122Z,5.60
2023-05-04T02:53:26.226Z,5.58
2023-05-04T02:56:27.852Z,5.61
2023-05-04T02:59:29.661Z,5.62
2023-05-04T03:02:31.522Z,5.63
2023-05-04T03:05:33.179Z,5.57
2023-05-04T03:08:36.482Z,5.57
2023-05-04T03:11:38.024Z,5.48
2023-05-04T03:14:39.581Z,5.41
2023-05-04T03:17:41.732Z,5.48
2023-05-04T03:20:43.354Z,5.50
2023-05-04T03:23:50.416Z,5.46
2023-05-04T03:26:52.051Z,5.39
2023-05-04T03:29:53.875Z,5.38
2023-05-04T03:32:55.514Z,5.33
2023-05-04T03:35:57.913Z,5.38
2023-05-04T03:39:01.188Z,5.41
2023-05-04T03:42:06.154Z,5.40
2023-05-04T03:45:08.657Z,5.40
2023-05-04T03:48:10.780Z,5.41
2023-05-04T03:51:13.138Z,5.40
2023-05-04T03:54:17.391Z,5.42
2023-05-04T03:57:19.261Z,5.48
2023-05-04T04:00:21.070Z,5.50
2023-05-04T04:03:33.248Z,5.49
2023-05-04T04:06:35.075Z,5.49
2023-05-04T04:09:38.136Z,5.53
2023-05-04T04:12:42.013Z,5.55
2023-05-04T04:15:45.788Z,5.48
2023-05-04T04:18:47.423Z,5.51
2023-05-04T04:21:49.500Z,5.55
2023-05-04T04:24:52.812Z,5.58
2023-05-04T04:27:54.385Z,5.56
2023-05-04T04:30:56.134Z,5.62
2023-05-04T04:33:57.863Z,5.69
2023-05-04T04:36:59.590Z,5.79
2023-05-04T04:40:04.120Z,5.86
2023-05-04T04:43:06.063Z,5.91
2023-05-04T04:46:08.463Z,5.98
2023-05-04T04:49:12.218Z,6.05
2023-05-04T04:52:15.529Z,6.13
2023-05-04T04:55:18.860Z,6.19
2023-05-04T04:58:21.065Z,6.24
2023-05-04T05:01:22.768Z,6.31
2023-05-04T05:04:25.367Z,6.41
2023-05-04T05:07:27.313Z,6.49
2023-05-04T05:10:30.881Z,6.59
2023-05-04T05:13:32.656Z,6.64
2023-05-04T05:16:34.377Z,6.74
2023-05-04T05:19:37.337Z,6.80
2023-05-04T05:22:39.150Z,6.88
2023-05-04T05:25:43.809Z,6.97
2023-05-04T05:28:45.481Z,7.09
2023-05-04T05:31:47.199Z,7.20
2023-05-04T05:34:48.910Z,7.30
2023-05-04T05:37:50.892Z,7.39
2023-05-04T05:40:53.936Z,7.47
2023-05-04T05:43:55.965Z,7.61
2023-05-04T05:46:57.756Z,7.75
2023-05-04T05:49:59.534Z,7.84
2023-05-04T05:53:01.501Z,7.87
2023-05-04T05:56:05.094Z,7.89
2023-05-04T05:59:06.717Z,8.01
2023-05-04T06:02:08.508Z,8.07
2023-05-04T06:05:10.989Z,8.15
2023-05-04T06:08:12.874Z,8.20
2023-05-04T06:11:15.771Z,8.25
2023-05-04T06:14:17.362Z,8.35
2023-05-04T06:17:19.321Z,8.41
2023-05-04T06:20:21.197Z,8.53
2023-05-04T06:23:23.117Z,8.53
2023-05-04T06:26:26.012Z,8.56
2023-05-04T06:29:27.901Z,8.60
2023-05-04T06:32:29.809Z,8.55
2023-05-04T06:35:31.750Z,8.55
2023-05-04T06:38:35.640Z,8.59
2023-05-04T06:41:40.893Z,8.68
2023-05-04T06:44:42.830Z,8.78
2023-05-04T06:47:44.470Z,8.90
2023-05-04T06:50:46.056Z,8.92
2023-05-04T06:53:48.070Z,8.96
2023-05-04T06:56:51.490Z,9.06
2023-05-04T06:59:53.293Z,9.14
2023-05-04T07:02:55.070Z,9.23
2023-05-04T07:05:57.026Z,9.27
2023-05-04T07:08:58.533Z,9.34
2023-05-04T07:12:01.411Z,9.42
2023-05-04T07:15:03.363Z,9.44
2023-05-04T07:18:05.366Z,9.50
2023-05-04T07:21:25.955Z,9.56
2023-05-04T07:24:29.682Z,9.63
2023-05-04T07:27:34.868Z,9.68
2023-05-04T07:30:36.623Z,9.69
2023-05-04T07:33:38.419Z,9.73
2023-05-04T07:36:42.031Z,9.85
2023-05-04T07:39:45.064Z,9.96
2023-05-04T07:42:48.231Z,10.02
2023-05-04T07:45:50.336Z,10.12
2023-05-04T07:48:52.096Z,10.31
2023-05-04T07:51:54.133Z,10.34
2023-05-04T07:54:56.405Z,10.40
2023-05-04T07:57:59.388Z,10.50
2023-05-04T08:01:01.152Z,10.62
2023-05-04T08:04:02.887Z,10.80
2023-05-04T08:07:04.562Z,11.02
2023-05-04T08:10:07.032Z,11.29
2023-05-04T08:13:10.141Z,11.48
2023-05-04T08:16:12.593Z,11.52
2023-05-04T08:19:14.561Z,11.54
2023-05-04T08:22:16.180Z,11.56
2023-05-04T08:25:18.133Z,11.66
2023-05-04T08:28:22.310Z,11.62
2023-05-04T08:31:24.000Z,11.65
2023-05-04T08:34:26.796Z,11.83
2023-05-04T08:37:28.651Z,11.96
2023-05-04T08:40:30.522Z,12.06
2023-05-04T08:43:35.876Z,12.16
2023-05-04T08:46:37.742Z,12.31
2023-05-04T08:49:39.377Z,12.43
2023-05-04T08:52:43.869Z,12.47
2023-05-04T08:55:47.472Z,12.49
2023-05-04T08:58:51.018Z,12.62
2023-05-04T09:01:54.825Z,12.58
2023-05-04T09:04:56.523Z,12.73
2023-05-04T09:07:58.340Z,12.91
2023-05-04T09:11:00.096Z,12.91
2023-05-04T09:14:03.154Z,12.92
2023-05-04T09:17:13.533Z,13.05
2023-05-04T09:20:15.215Z,13.24
2023-05-04T09:23:18.098Z,13.41
2023-05-04T09:26:27.717Z,13.74
2023-05-04T09:29:32.422Z,13.96
2023-05-04T09:32:36.922Z,14.10
2023-05-04T09:35:40.162Z,14.20
2023-05-04T09:38:44.440Z,14.29
2023-05-04T09:41:46.337Z,14.32
2023-05-04T09:44:59.560Z,14.49
2023-05-04T09:48:01.443Z,14.48
2023-05-04T09:51:04.241Z,14.48
2023-05-04T09:54:06.382Z,14.63
2023-05-04T09:57:11.506Z,14.72
2023-05-04T10:00:16.300Z,14.71
2023-05-04T10:03:18.591Z,14.84
2023-05-04T10:06:21.607Z,14.88
2023-05-04T10:09:23.379Z,14.96
2023-05-04T10:12:25.023Z,15.01
2023-05-04T10:15:28.233Z,15.14
2023-05-04T10:18:36.675Z,15.13
2023-05-04T10:21:44.933Z,15.30
2023-05-04T10:24:55.396Z,15.35
2023-05-04T10:28:01.729Z,15.25
2023-05-04T10:31:06.293Z,15.25
2023-05-04T10:34:08.428Z,15.45
2023-05-04T10:37:16.583Z,15.57
2023-05-04T10:40:18.300Z,15.53
2023-05-04T10:43:23.011Z,15.70
2023-05-04T10:46:26.285Z,15.69
2023-05-04T10:49:27.907Z,15.82
2023-05-04T10:52:29.683Z,15.99
2023-05-04T10:55:38.826Z,16.00
2023-05-04T10:58:40.703Z,16.04
2023-05-04T11:01:47.423Z,16.05
2023-05-04T11:04:58.382Z,16.12
2023-05-04T11:08:00.551Z,16.14
2023-05-04T11:11:02.988Z,16.27
2023-05-04T11:14:04.791Z,16.23
2023-05-04T11:17:23.941Z,16.27
2023-05-04T11:20:29.862Z,16.28
2023-05-04T11:23:32.305Z,16.48
2023-05-04T11:26:35.300Z,16.50
2023-05-04T11:29:36.945Z,16.65
2023-05-04T11:32:42.998Z,16.51
2023-05-04T11:35:45.257Z,16.46
2023-05-04T11:38:47.778Z,16.70
2023-05-04T11:41:49.742Z,16.78
2023-05-04T11:44:51.773Z,16.83
2023-05-04T11:47:56.755Z,16.90
2023-05-04T11:50:58.671Z,16.83
2023-05-04T11:54:01.283Z,16.71
2023-05-04T11:57:04.262Z,16.81
2023-05-04T12:00:07.042Z,16.90
2023-05-04T12:03:14.461Z,16.97
2023-05-04T12:06:16.469Z,17.29
2023-05-04T12:09:18.062Z,17.47
2023-05-04T12:12:21.397Z,17.68
2023-05-04T12:15:30.570Z,17.83
2023-05-04T12:18:34.134Z,17.77
2023-05-04T12:21:36.222Z,17.83
2023-05-04T12:24:39.839Z,17.83
2023-05-04T12:27:42.148Z,17.91
2023-05-04T12:30:44.026Z,18.14
2023-05-04T12:33:47.567Z,18.13
2023-05-04T12:36:50.788Z,18.11
2023-05-04T12:39:52.372Z,18.04
2023-05-04T12:42:54.124Z,18.03
2023-05-04T12:45:56.097Z,17.84
2023-05-04T12:48:59.185Z,17.92
2023-05-04T12:52:00.935Z,18.03
2023-05-04T12:55:03.256Z,18.10
2023-05-04T12:58:05.098Z,18.16
2023-05-04T13:01:07.415Z,18.25
2023-05-04T13:04:10.544Z,18.30
2023-05-04T13:07:14.766Z,18.37
2023-05-04T13:10:16.935Z,18.24
2023-05-04T13:13:19.340Z,18.23
2023-05-04T13:16:21.202Z,18.34
2023-05-04T13:19:24.293Z,18.44
2023-05-04T13:22:27.159Z,18.66
2023-05-04T13:25:28.852Z,18.69
2023-05-04T13:28:30.807Z,18.73
2023-05-04T13:31:32.528Z,18.87
2023-05-04T13:34:36.497Z,19.02
2023-05-04T13:37:38.474Z,18.98
2023-05-04T13:40:40.577Z,18.98
2023-05-04T13:43:42.141Z,18.99
2023-05-04T13:46:43.927Z,19.40
2023-05-04T13:49:47.633Z,19.40
2023-05-04T13:52:49.192Z,19.50
2023-05-04T13:55:50.971Z,19.62
2023-05-04T13:58:53.914Z,19.74
2023-05-04T14:01:56.159Z,19.71
2023-05-04T14:04:59.185Z,19.67
2023-05-04T14:08:00.813Z,19.78
2023-05-04T14:11:02.848Z,19.95
2023-05-04T14:14:04.487Z,20.06
2023-05-04T14:17:06.472Z,20.18
2023-05-04T14:20:10.605Z,20.21
2023-05-04T14:23:12.194Z,20.22
2023-05-04T14:26:13.928Z,20.14
2023-05-04T14:29:15.530Z,20.37
2023-05-04T14:32:17.324Z,20.30
2023-05-04T14:35:20.410Z,20.18
2023-05-04T14:38:21.986Z,20.32
2023-05-04T14:41:23.673Z,20.35
2023-05-04T14:44:26.207Z,20.33
2023-05-04T14:47:28.873Z,20.30
2023-05-04T14:50:32.210Z,20.49
2023-05-04T14:53:37.024Z,20.54
2023-05-04T14:56:41.021Z,20.47
2023-05-04T14:59:42.925Z,20.05
2023-05-04T15:02:44.580Z,19.81
2023-05-04T15:05:47.788Z,19.80
2023-05-04T15:08:49.415Z,19.77
2023-05-04T15:11:51.118Z,19.79
2023-05-04T15:14:53.106Z,19.90
2023-05-04T15:17:55.423Z,19.95
2023-05-04T15:20:58.453Z,19.81
2023-05-04T15:24:00.573Z,19.89
2023-05-04T15:27:02.506Z,19.86
2023-05-04T15:30:04.962Z,19.81
2023-05-04T15:33:07.041Z,19.79
2023-05-04T15:36:10.370Z,19.67
2023-05-04T15:39:12.364Z,19.53
2023-05-04T15:42:14.145Z,19.46
2023-05-04T15:45:15.805Z,19.39
2023-05-04T15:48:18.657Z,19.37
2023-05-04T15:51:21.826Z,19.26
2023-05-04T15:54:23.829Z,19.11
2023-05-04T15:57:26.482Z,19.08
2023-05-04T16:00:28.368Z,19.09
2023-05-04T16:03:30.847Z,19.11
2023-05-04T16:06:34.153Z,18.84
2023-05-04T16:09:36.145Z,18.81
2023-05-04T16:12:38.234Z,18.74
2023-05-04T16:15:40.288Z,18.56
2023-05-04T16:18:41.943Z,18.56
2023-05-04T16:21:45.190Z,18.48
2023-05-04T16:24:46.795Z,18.46
2023-05-04T16:27:48.645Z,18.45
2023-05-04T16:30:50.547Z,18.54
2023-05-04T16:33:52.396Z,18.52
2023-05-04T16:36:55.928Z,18.43
2023-05-04T16:39:57.630Z,18.30
2023-05-04T16:42:59.401Z,18.23
2023-05-04T16:46:01.435Z,18.15
2023-05-04T16:49:02.966Z,17.95
2023-05-04T16:52:05.956Z,17.83
2023-05-04T16:55:10.622Z,17.78
2023-05-04T16:58:13.389Z,17.65
2023-05-04T17:01:15.066Z,17.57
2023-05-04T17:04:16.796Z,17.44
2023-05-04T17:07:19.956Z,17.41
2023-05-04T17:10:21.715Z,17.30
2023-05-04T17:13:23.267Z,17.29
2023-05-04T17:16:24.887Z,17.23
2023-05-04T17:19:27.061Z,17.11
2023-05-04T17:22:30.060Z,16.99
2023-05-04T17:25:31.556Z,16.92
2023-05-04T17:28:33.418Z,16.84
2023-05-04T17:31:35.076Z,16.80
2023-05-04T17:34:36.851Z,16.75
2023-05-04T17:37:39.802Z,16.71
2023-05-04T17:40:41.375Z,16.67
2023-05-04T17:43:43.044Z,16.64
2023-05-04T17:46:44.771Z,16.60
2023-05-04T17:49:47.586Z,16.52
2023-05-04T17:52:54.367Z,16.45
2023-05-04T17:55:56.291Z,16.34
2023-05-04T17:58:58.038Z,16.25
2023-05-04T18:01:59.867Z,16.16
2023-05-04T18:05:01.659Z,16.11
2023-05-04T18:08:05.639Z,16.02
2023-05-04T18:11:07.327Z,15.98
2023-05-04T18:14:09.297Z,15.90
2023-05-04T18:17:10.839Z,15.84
2023-05-04T18:20:13.307Z,15.75
2023-05-04T18:23:16.458Z,15.69
2023-05-04T18:26:19.284Z,15.61
2023-05-04T18:29:21.440Z,15.54
2023-05-04T18:32:23.123Z,15.46
2023-05-04T18:35:24.779Z,15.42
2023-05-04T18:38:28.507Z,15.37
2023-05-04T18:41:30.337Z,15.28
2023-05-04T18:44:32.019Z,15.21
2023-05-04T18:47:33.723Z,15.13
2023-05-04T18:50:35.271Z,15.04
2023-05-04T18:53:38.433Z,14.98
2023-05-04T18:56:40.369Z,14.92
2023-05-04T18:59:42.263Z,14.85
2023-05-04T19:02:43.941Z,14.81
2023-05-04T19:05:45.775Z,14.74
2023-05-04T19:08:48.652Z,14.70
2023-05-04T19:11:50.456Z,14.64
2023-05-04T19:14:52.101Z,14.59
2023-05-04T19:17:53.963Z,14.54
2023-05-04T19:20:55.739Z,14.46
2023-05-04T19:23:58.933Z,14.39
2023-05-04T19:27:00.768Z,14.36
2023-05-04T19:30:02.532Z,14.32
2023-05-04T19:33:05.608Z,14.28
2023-05-04T19:36:07.744Z,14.24
2023-05-04T19:39:10.894Z,14.17
2023-05-04T19:42:12.443Z,14.11
2023-05-04T19:45:14.317Z,14.08
2023-05-04T19:48:17.516Z,14.05
2023-05-04T19:51:19.473Z,13.99
2023-05-04T19:54:22.519Z,13.94
2023-05-04T19:57:24.137Z,13.89
2023-05-04T20:00:26.148Z,13.87
2023-05-04T20:03:27.648Z,13.82
2023-05-04T20:06:29.317Z,13.77
2023-05-04T20:09:32.530Z,13.76
2023-05-04T20:12:34.610Z,13.72
2023-05-04T20:15:36.254Z,13.70
2023-05-04T20:18:38.059Z,13.69
2023-05-04T20:21:39.619Z,13.68
2023-05-04T20:24:42.681Z,13.67
2023-05-04T20:27:45.462Z,13.72
2023-05-04T20:30:47.069Z,13.71
2023-05-04T20:33:48.601Z,13.71
2023-05-04T20:36:50.335Z,13.67
2023-05-04T20:39:53.382Z,13.66
2023-05-04T20:42:55.251Z,13.63
2023-05-04T20:45:58.472Z,13.58
2023-05-04T20:49:02.806Z,13.52
2023-05-04T20:52:05.147Z,13.46
2023-05-04T20:55:09.234Z,13.42
2023-05-04T20:58:11.695Z,13.38
2023-05-04T21:01:13.350Z,13.35
2023-05-04T21:04:15.375Z,13.26
2023-05-04T21:07:17.039Z,13.22
2023-05-04T21:10:21.496Z,13.17
2023-05-04T21:13:23.426Z,13.14
2023-05-04T21:16:25.300Z,13.15
2023-05-04T21:19:27.069Z,13.13
2023-05-04T21:22:29.479Z,13.05
2023-05-04T21:25:33.064Z,13.01
2023-05-04T21:28:34.956Z,12.97
2023-05-04T21:31:36.597Z,12.93
2023-05-04T21:34:38.337Z,12.88
2023-05-04T21:37:39.870Z,12.82
2023-05-04T21:40:42.903Z,12.77
2023-05-04T21:43:44.721Z,12.71
2023-05-04T21:46:46.787Z,12.69
2023-05-04T21:49:48.481Z,12.69
2023-05-04T21:52:50.305Z,12.68
2023-05-04T21:55:53.350Z,12.69
2023-05-04T21:58:55.037Z,12.68
2023-05-04T22:01:57.307Z,12.67
2023-05-04T22:04:58.906Z,12.64
2023-05-04T22:08:01.037Z,12.66
2023-05-04T22:11:03.969Z,12.66
2023-05-04T22:14:05.933Z,12.64
2023-05-04T22:17:07.781Z,12.64
2023-05-04T22:20:10.437Z,12.63
2023-05-04T22:23:12.327Z,12.58
2023-05-04T22:26:15.401Z,12.55
2023-05-04T22:29:17.097Z,12.47
2023-05-04T22:32:18.754Z,12.46
2023-05-04T22:35:21.008Z,12.43
2023-05-04T22:38:22.782Z,12.43
2023-05-04T22:41:25.906Z,12.41
2023-05-04T22:44:27.547Z,12.39
2023-05-04T22:47:29.189Z,12.37
2023-05-04T22:50:31.026Z,12.36
2023-05-04T22:53:32.632Z,12.35
2023-05-04T22:56:35.587Z,12.32
2023-05-04T22:59:37.302Z,12.32
2023-05-04T23:02:39.219Z,12.33
2023-05-04T23:05:41.104Z,12.34
2023-05-04T23:08:43.181Z,12.29
2023-05-04T23:11:46.286Z,12.28
2023-05-04T23:14:50.112Z,12.24
2023-05-04T23:17:51.884Z,12.21
2023-05-04T23:20:53.442Z,12.20
2023-05-04T23:23:55.349Z,12.16
2023-05-04T23:26:58.901Z,12.09
2023-05-04T23:30:00.696Z,12.03
2023-05-04T23:33:02.729Z,11.96
2023-05-04T23:36:04.646Z,11.92
2023-05-04T23:39:06.681Z,11.87
2023-05-04T23:42:09.872Z,11.82
2023-05-04T23:45:11.834Z,11.75
2023-05-04T23:48:13.374Z,11.73
2023-05-04T23:51:15.348Z,11.72
2023-05-04T23:54:17.238Z,11.70
2023-05-04T23:57:20.156Z,11.64
